sensor_id;sensor_type;location;lat;lon;timestamp;pressure;altitude;pressure_sealevel;temperature;humidity
54628;BME280;40525;55.926;21.066;2023-05-23T08:19:43;101469.85;;;21.77;42.40
54628;BME280;40525;55.926;21.066;2023-05-23T08:22:44;101468.61;;;21.90;41.37
54628;BME280;40525;55.926;21.066;2023-05-23T08:25:19;101466.98;;;22.01;39.76
54628;BME280;40525;55.926;21.066;2023-05-23T08:28:10;101465.70;;;22.13;39.67
54628;BME280;40525;55.926;21.066;2023-05-23T08:30:49;101465.41;;;22.20;37.93
54628;BME280;40525;55.926;21.066;2023-05-23T08:33:36;101462.14;;;22.32;38.29
54628;BME280;40525;55.926;21.066;2023-05-23T08:36:32;101465.94;;;22.46;38.69
54628;BME280;40525;55.926;21.066;2023-05-23T08:39:26;101463.13;;;22.54;39.25
54628;BME280;40525;55.926;21.066;2023-05-23T08:42:32;101462.76;;;22.63;39.33
54628;BME280;40525;55.926;21.066;2023-05-23T08:45:20;101459.73;;;22.69;38.69
54628;BME280;40525;55.926;21.066;2023-05-23T08:47:54;101461.46;;;22.74;39.20
54628;BME280;40525;55.926;21.066;2023-05-23T08:50:46;101462.32;;;22.74;38.96
54628;BME280;40525;55.926;21.066;2023-05-23T08:53:22;101463.36;;;22.71;38.29
54628;BME280;40525;55.926;21.066;2023-05-23T08:56:12;101459.80;;;22.66;37.61
54628;BME280;40525;55.926;21.066;2023-05-23T08:59:04;101456.64;;;22.68;38.76
54628;BME280;40525;55.926;21.066;2023-05-23T09:01:47;101457.75;;;22.73;38.38
54628;BME280;40525;55.926;21.066;2023-05-23T09:04:28;101459.48;;;22.66;38.23
54628;BME280;40525;55.926;21.066;2023-05-23T09:07:17;101461.36;;;22.48;38.55
54628;BME280;40525;55.926;21.066;2023-05-23T09:09:58;101461.00;;;22.41;38.38
54628;BME280;40525;55.926;21.066;2023-05-23T09:12:39;101460.22;;;22.40;38.06
54628;BME280;40525;55.926;21.066;2023-05-23T09:15:19;101458.67;;;22.37;38.32
54628;BME280;40525;55.926;21.066;2023-05-23T09:18:00;101460.89;;;22.38;39.04
54628;BME280;40525;55.926;21.066;2023-05-23T09:20:40;101460.20;;;22.40;39.27
54628;BME280;40525;55.926;21.066;2023-05-23T09:23:22;101459.80;;;22.36;39.50
54628;BME280;40525;55.926;21.066;2023-05-23T09:26:04;101456.98;;;22.38;39.91
54628;BME280;40525;55.926;21.066;2023-05-23T09:28:45;101456.70;;;22.37;39.85
54628;BME280;40525;55.926;21.066;2023-05-23T09:31:25;101460.75;;;22.25;40.12
54628;BME280;40525;55.926;21.066;2023-05-23T09:34:07;101454.69;;;22.24;40.58
54628;BME280;40525;55.926;21.066;2023-05-23T09:36:49;101455.13;;;22.30;39.90
54628;BME280;40525;55.926;21.066;2023-05-23T09:39:30;101452.58;;;22.26;39.91
54628;BME280;40525;55.926;21.066;2023-05-23T09:42:10;101452.61;;;22.23;40.01
54628;BME280;40525;55.926;21.066;2023-05-23T09:44:50;101455.66;;;22.30;40.31
54628;BME280;40525;55.926;21.066;2023-05-23T09:47:30;101455.71;;;22.47;40.50
54628;BME280;40525;55.926;21.066;2023-05-23T09:50:11;101453.10;;;22.65;40.24
54628;BME280;40525;55.926;21.066;2023-05-23T09:52:52;101456.40;;;22.76;40.08
54628;BME280;40525;55.926;21.066;2023-05-23T09:55:32;101458.23;;;22.78;40.17
54628;BME280;40525;55.926;21.066;2023-05-23T09:58:13;101458.86;;;22.73;40.16
54628;BME280;40525;55.926;21.066;2023-05-23T10:00:55;101454.55;;;22.65;40.62
54628;BME280;40525;55.926;21.066;2023-05-23T10:03:48;101457.84;;;22.68;41.17
54628;BME280;40525;55.926;21.066;2023-05-23T10:06:56;101456.90;;;22.73;40.48
54628;BME280;40525;55.926;21.066;2023-05-23T10:09:41;101454.98;;;22.64;39.52
54628;BME280;40525;55.926;21.066;2023-05-23T10:15:20;101452.20;;;22.84;38.68
54628;BME280;40525;55.926;21.066;2023-05-23T10:18:08;101446.11;;;22.96;38.36
54628;BME280;40525;55.926;21.066;2023-05-23T10:20:53;101444.21;;;23.10;38.07
54628;BME280;40525;55.926;21.066;2023-05-23T10:23:36;101445.47;;;23.29;37.98
54628;BME280;40525;55.926;21.066;2023-05-23T10:26:17;101445.02;;;23.56;38.65
54628;BME280;40525;55.926;21.066;2023-05-23T10:28:59;101445.84;;;23.75;38.25
54628;BME280;40525;55.926;21.066;2023-05-23T10:31:40;101442.38;;;23.86;38.26
54628;BME280;40525;55.926;21.066;2023-05-23T10:37:24;101435.13;;;24.08;37.76
54628;BME280;40525;55.926;21.066;2023-05-23T10:40:36;101434.44;;;24.22;37.55
54628;BME280;40525;55.926;21.066;2023-05-23T10:43:24;101435.95;;;24.31;37.01
54628;BME280;40525;55.926;21.066;2023-05-23T10:46:13;101430.23;;;24.34;36.85
54628;BME280;40525;55.926;21.066;2023-05-23T10:48:53;101428.25;;;24.44;36.28
54628;BME280;40525;55.926;21.066;2023-05-23T10:51:40;101430.70;;;24.50;36.16
54628;BME280;40525;55.926;21.066;2023-05-23T10:54:19;101433.81;;;24.56;36.06
54628;BME280;40525;55.926;21.066;2023-05-23T10:57:06;101431.73;;;24.61;36.12
54628;BME280;40525;55.926;21.066;2023-05-23T10:59:39;101430.02;;;24.66;36.38
54628;BME280;40525;55.926;21.066;2023-05-23T11:02:27;101430.31;;;24.76;36.01
54628;BME280;40525;55.926;21.066;2023-05-23T11:08:13;101429.41;;;25.01;35.55
54628;BME280;40525;55.926;21.066;2023-05-23T11:11:04;101430.95;;;25.22;34.77
54628;BME280;40525;55.926;21.066;2023-05-23T11:16:42;101435.18;;;25.21;35.63
54628;BME280;40525;55.926;21.066;2023-05-23T11:19:23;101431.92;;;25.16;36.42
54628;BME280;40525;55.926;21.066;2023-05-23T11:22:08;101430.69;;;25.10;36.03
54628;BME280;40525;55.926;21.066;2023-05-23T11:24:52;101429.54;;;25.07;36.62
54628;BME280;40525;55.926;21.066;2023-05-23T11:27:37;101433.50;;;25.18;36.29
54628;BME280;40525;55.926;21.066;2023-05-23T11:30:27;101427.35;;;25.32;36.56
54628;BME280;40525;55.926;21.066;2023-05-23T11:33:10;101428.98;;;25.47;36.52
54628;BME280;40525;55.926;21.066;2023-05-23T11:35:59;101431.02;;;25.61;36.21
54628;BME280;40525;55.926;21.066;2023-05-23T11:38:33;101426.91;;;25.73;35.96
54628;BME280;40525;55.926;21.066;2023-05-23T11:41:22;101424.28;;;25.89;35.55
54628;BME280;40525;55.926;21.066;2023-05-23T11:43:55;101425.58;;;26.09;35.45
54628;BME280;40525;55.926;21.066;2023-05-23T11:47:01;101424.81;;;26.20;34.63
54628;BME280;40525;55.926;21.066;2023-05-23T11:49:38;101421.56;;;26.34;34.46
54628;BME280;40525;55.926;21.066;2023-05-23T11:52:31;101422.27;;;26.63;34.44
54628;BME280;40525;55.926;21.066;2023-05-23T11:55:07;101420.80;;;26.89;33.68
54628;BME280;40525;55.926;21.066;2023-05-23T11:57:55;101416.28;;;27.12;33.30
54628;BME280;40525;55.926;21.066;2023-05-23T12:00:30;101416.12;;;27.06;32.30
54628;BME280;40525;55.926;21.066;2023-05-23T12:03:17;101416.19;;;26.73;32.31
54628;BME280;40525;55.926;21.066;2023-05-23T12:05:50;101416.77;;;26.56;32.35
54628;BME280;40525;55.926;21.066;2023-05-23T12:08:37;101414.42;;;26.76;32.28
54628;BME280;40525;55.926;21.066;2023-05-23T12:11:12;101416.34;;;26.98;31.73
54628;BME280;40525;55.926;21.066;2023-05-23T12:14:02;101413.34;;;27.11;30.98
54628;BME280;40525;55.926;21.066;2023-05-23T12:16:39;101409.00;;;27.35;31.20
54628;BME280;40525;55.926;21.066;2023-05-23T12:19:33;101403.29;;;27.70;30.65
54628;BME280;40525;55.926;21.066;2023-05-23T12:22:27;101400.25;;;28.00;29.78
54628;BME280;40525;55.926;21.066;2023-05-23T12:25:21;101399.82;;;28.02;29.50
54628;BME280;40525;55.926;21.066;2023-05-23T12:27:55;101396.09;;;28.08;29.68
54628;BME280;40525;55.926;21.066;2023-05-23T12:30:43;101396.38;;;28.48;29.37
54628;BME280;40525;55.926;21.066;2023-05-23T12:33:18;101393.33;;;28.60;29.12
54628;BME280;40525;55.926;21.066;2023-05-23T12:36:06;101394.42;;;28.74;28.77
54628;BME280;40525;55.926;21.066;2023-05-23T12:38:46;101392.44;;;28.92;28.56
54628;BME280;40525;55.926;21.066;2023-05-23T12:41:26;101389.64;;;28.95;28.85
54628;BME280;40525;55.926;21.066;2023-05-23T12:44:07;101389.69;;;28.92;28.91
54628;BME280;40525;55.926;21.066;2023-05-23T12:46:47;101391.31;;;28.91;28.98
54628;BME280;40525;55.926;21.066;2023-05-23T12:49:29;101390.76;;;28.65;28.90
54628;BME280;40525;55.926;21.066;2023-05-23T12:52:09;101395.45;;;28.25;29.24
54628;BME280;40525;55.926;21.066;2023-05-23T12:54:51;101392.73;;;27.84;29.65
54628;BME280;40525;55.926;21.066;2023-05-23T12:57:33;101394.66;;;27.59;29.90
54628;BME280;40525;55.926;21.066;2023-05-23T13:00:15;101397.20;;;27.47;30.36
54628;BME280;40525;55.926;21.066;2023-05-23T13:02:55;101395.70;;;27.53;30.33
54628;BME280;40525;55.926;21.066;2023-05-23T13:05:37;101393.84;;;27.70;30.38
54628;BME280;40525;55.926;21.066;2023-05-23T13:08:18;101391.46;;;27.97;30.75
54628;BME280;40525;55.926;21.066;2023-05-23T13:10:59;101391.34;;;28.13;30.83
54628;BME280;40525;55.926;21.066;2023-05-23T13:13:38;101390.13;;;28.33;30.66
54628;BME280;40525;55.926;21.066;2023-05-23T13:16:19;101388.56;;;28.49;30.41
54628;BME280;40525;55.926;21.066;2023-05-23T13:19:00;101392.81;;;28.61;30.01
54628;BME280;40525;55.926;21.066;2023-05-23T13:21:42;101390.67;;;28.56;29.97
54628;BME280;40525;55.926;21.066;2023-05-23T13:24:22;101391.11;;;28.32;30.36
54628;BME280;40525;55.926;21.066;2023-05-23T13:27:04;101392.02;;;28.12;30.60
54628;BME280;40525;55.926;21.066;2023-05-23T13:29:46;101389.98;;;28.08;30.64
54628;BME280;40525;55.926;21.066;2023-05-23T13:32:27;101389.30;;;27.89;31.03
54628;BME280;40525;55.926;21.066;2023-05-23T13:35:08;101393.03;;;27.73;31.50
54628;BME280;40525;55.926;21.066;2023-05-23T13:37:49;101391.98;;;27.49;31.78
54628;BME280;40525;55.926;21.066;2023-05-23T13:40:29;101390.77;;;27.30;32.09
54628;BME280;40525;55.926;21.066;2023-05-23T13:43:11;101392.61;;;27.10;32.43
54628;BME280;40525;55.926;21.066;2023-05-23T13:45:50;101392.09;;;26.91;32.66
54628;BME280;40525;55.926;21.066;2023-05-23T13:48:32;101391.98;;;26.75;33.04
54628;BME280;40525;55.926;21.066;2023-05-23T13:51:12;101391.20;;;26.65;33.43
54628;BME280;40525;55.926;21.066;2023-05-23T13:53:54;101389.45;;;26.54;33.47
54628;BME280;40525;55.926;21.066;2023-05-23T13:56:35;101385.92;;;26.44;33.43
54628;BME280;40525;55.926;21.066;2023-05-23T13:59:19;101387.77;;;26.38;33.49
54628;BME280;40525;55.926;21.066;2023-05-23T14:01:59;101388.30;;;26.31;33.63
54628;BME280;40525;55.926;21.066;2023-05-23T14:04:41;101386.67;;;26.26;33.78
54628;BME280;40525;55.926;21.066;2023-05-23T14:07:22;101387.27;;;26.38;33.96
54628;BME280;40525;55.926;21.066;2023-05-23T14:10:04;101389.65;;;26.61;34.13
54628;BME280;40525;55.926;21.066;2023-05-23T14:12:44;101390.05;;;26.80;33.91
54628;BME280;40525;55.926;21.066;2023-05-23T14:15:25;101388.01;;;26.96;33.81
54628;BME280;40525;55.926;21.066;2023-05-23T14:18:06;101388.23;;;27.06;33.54
54628;BME280;40525;55.926;21.066;2023-05-23T14:20:53;101385.77;;;27.26;32.91
54628;BME280;40525;55.926;21.066;2023-05-23T14:23:47;101384.02;;;27.94;32.19
54628;BME280;40525;55.926;21.066;2023-05-23T14:26:21;101381.99;;;28.76;31.52
54628;BME280;40525;55.926;21.066;2023-05-23T14:29:08;101381.97;;;29.50;30.63
54628;BME280;40525;55.926;21.066;2023-05-23T14:31:42;101380.28;;;30.19;29.66
54628;BME280;40525;55.926;21.066;2023-05-23T14:34:30;101379.09;;;30.67;28.34
54628;BME280;40525;55.926;21.066;2023-05-23T14:37:05;101381.98;;;31.06;27.63
54628;BME280;40525;55.926;21.066;2023-05-23T14:39:52;101382.52;;;31.26;27.46
54628;BME280;40525;55.926;21.066;2023-05-23T14:42:26;101383.28;;;31.31;26.66
54628;BME280;40525;55.926;21.066;2023-05-23T14:45:14;101380.50;;;31.32;25.88
54628;BME280;40525;55.926;21.066;2023-05-23T14:47:54;101381.27;;;31.12;25.79
